Time;durP1;ratioP1;P1;durP2;ratioP2;P2;SDS_P1;SDS_P2;PMS_P1;PMS_P2;Temp;Humidity;BMP_temperature;BMP_pressure;BME280_temperature;BME280_humidity;BME280_pressure;Samples;Min_cycle;Max_cycle;Signal;HPM_P1;HPM_P2
2022/03/14 00:01:13;;;;;;;1.60;1.10;;;11.80;95.20;;;;;;4990756;28;20411;-65
2022/03/14 00:03:50;;;;;;;1.67;1.20;;;11.90;95.00;;;;;;4990944;28;20026;-65
2022/03/14 00:06:17;;;;;;;1.85;1.52;;;11.90;98.00;;;;;;4990831;28;20542;-65
2022/03/14 00:08:44;;;;;;;1.80;1.23;;;;;;;;;;4989583;28;20042;-68
2022/03/14 00:11:12;;;;;;;1.58;1.10;;;11.70;95.20;;;;;;4990458;28;20056;-68
2022/03/14 00:13:38;;;;;;;1.33;0.88;;;;;;;;;;4990876;28;20053;-65
2022/03/14 00:16:04;;;;;;;1.83;1.10;;;11.90;98.10;;;;;;4990802;28;20586;-65
2022/03/14 00:18:32;;;;;;;1.65;1.20;;;11.80;97.60;;;;;;4990989;28;20064;-66
2022/03/14 00:20:58;;;;;;;1.65;1.10;;;11.80;98.10;;;;;;4990338;28;20102;-65
2022/03/14 00:23:26;;;;;;;3.33;0.73;;;12.00;98.20;;;;;;4990103;28;20113;-65
2022/03/14 00:25:52;;;;;;;1.67;0.95;;;11.90;97.50;;;;;;4989302;28;20026;-65
2022/03/14 00:28:17;;;;;;;1.55;0.98;;;11.70;98.20;;;;;;4990864;28;20538;-65
2022/03/14 00:30:42;;;;;;;1.60;0.90;;;11.90;98.30;;;;;;4990724;28;20042;-65
2022/03/14 00:33:08;;;;;;;1.55;1.00;;;11.80;98.30;;;;;;4990450;28;20045;-65
2022/03/14 00:35:33;;;;;;;1.40;1.00;;;11.90;98.40;;;;;;4990683;28;20144;-65
2022/03/14 00:38:00;;;;;;;1.20;0.82;;;;;;;;;;4989868;28;20392;-65
2022/03/14 00:40:26;;;;;;;1.20;0.75;;;11.90;98.50;;;;;;4990572;28;20042;-66
2022/03/14 00:42:52;;;;;;;1.55;0.90;;;11.70;98.50;;;;;;4990073;28;20030;-66
2022/03/14 00:45:18;;;;;;;1.90;1.15;;;11.80;98.60;;;;;;4990789;28;20030;-66
2022/03/14 00:47:44;;;;;;;1.88;1.13;;;11.80;98.60;;;;;;4990686;28;20375;-66
2022/03/14 00:50:10;;;;;;;2.65;0.90;;;11.60;98.60;;;;;;4990286;28;20034;-66
2022/03/14 00:52:36;;;;;;;1.52;1.25;;;11.60;98.60;;;;;;4989936;28;20046;-66
2022/03/14 00:55:02;;;;;;;1.75;1.25;;;;;;;;;;4989148;28;20037;-66
2022/03/14 00:57:27;;;;;;;1.20;1.10;;;11.70;98.80;;;;;;4990621;28;20042;-66
2022/03/14 00:59:53;;;;;;;1.13;0.90;;;11.50;98.80;;;;;;4989868;28;20034;-66
2022/03/14 01:02:18;;;;;;;2.17;1.00;;;11.70;96.20;;;;;;4990602;28;20076;-66
2022/03/14 01:04:44;;;;;;;1.17;0.80;;;11.60;99.20;;;;;;4990502;28;20046;-66
2022/03/14 01:07:09;;;;;;;1.55;1.08;;;11.40;99.30;;;;;;4989710;28;20038;-66
2022/03/14 01:09:35;;;;;;;1.83;1.10;;;11.60;99.40;;;;;;4990356;28;20113;-66
2022/03/14 01:12:01;;;;;;;1.50;1.23;;;11.40;99.50;;;;;;4990236;28;20030;-66
2022/03/14 01:14:26;;;;;;;0.82;0.60;;;11.40;99.50;;;;;;4990370;28;20045;-66
2022/03/14 01:16:53;;;;;;;1.90;1.23;;;11.20;99.50;;;;;;4990038;28;20472;-66
2022/03/14 01:19:19;;;;;;;1.50;1.00;;;11.30;99.60;;;;;;4990497;28;20113;-66
2022/03/14 01:21:45;;;;;;;1.23;1.02;;;11.40;99.70;;;;;;4992339;28;20027;-66
2022/03/14 01:24:11;;;;;;;1.27;0.82;;;11.40;99.80;;;;;;4993743;28;20039;-66
2022/03/14 01:26:37;;;;;;;1.80;1.17;;;11.30;99.80;;;;;;5008893;28;20033;-67
2022/03/14 01:29:03;;;;;;;2.00;1.17;;;11.30;99.90;;;;;;4993365;28;20030;-66
2022/03/14 01:31:29;;;;;;;2.70;1.67;;;11.40;99.90;;;;;;4993836;28;20018;-66
2022/03/14 01:33:55;;;;;;;1.52;1.10;;;11.20;99.90;;;;;;4993335;28;20072;-66
2022/03/14 01:36:21;;;;;;;2.97;1.30;;;11.20;99.50;;;;;;5008257;28;20018;-66
2022/03/14 01:38:46;;;;;;;1.80;1.25;;;11.40;99.90;;;;;;4993592;28;20089;-66
2022/03/14 01:41:17;;;;;;;1.50;1.02;;;11.30;99.90;;;;;;4993398;28;20030;-66
2022/03/14 01:43:43;;;;;;;1.35;0.90;;;;;;;;;;4993446;28;20467;-66
2022/03/14 01:46:08;;;;;;;1.77;1.20;;;11.30;99.90;;;;;;4993318;28;20027;-66
2022/03/14 01:48:34;;;;;;;1.73;1.33;;;11.10;99.90;;;;;;4993407;28;20525;-66
2022/03/14 01:51:00;;;;;;;1.83;1.40;;;11.10;99.90;;;;;;4992660;28;20057;-66
2022/03/14 01:53:29;;;;;;;2.45;1.60;;;11.20;99.90;;;;;;4993018;28;20430;-66
2022/03/14 01:55:54;;;;;;;1.63;1.38;;;11.20;99.90;;;;;;4992979;28;20062;-67
2022/03/14 01:58:21;;;;;;;2.15;1.50;;;11.10;99.90;;;;;;4993414;28;20069;-66
2022/03/14 02:00:46;;;;;;;1.80;1.30;;;11.20;99.90;;;;;;4993221;28;20476;-66
2022/03/14 02:03:12;;;;;;;1.40;1.27;;;11.40;99.90;;;;;;4992945;28;20030;-66
2022/03/14 02:05:38;;;;;;;2.50;2.15;;;;;;;;;;4992582;28;20439;-66
2022/03/14 02:08:07;;;;;;;2.67;1.67;;;11.00;99.90;;;;;;4992737;28;20030;-66
2022/03/14 02:10:34;;;;;;;2.70;1.55;;;11.20;99.90;;;;;;4993133;28;20482;-66
2022/03/14 02:13:07;;;;;;;2.38;1.80;;;11.10;94.00;;;;;;4992763;28;20026;-66
2022/03/14 02:15:33;;;;;;;2.47;1.70;;;11.20;99.90;;;;;;4993015;28;20026;-66
2022/03/14 02:17:59;;;;;;;2.78;1.70;;;11.10;99.90;;;;;;4992416;28;20030;-66
2022/03/14 02:20:25;;;;;;;2.88;1.60;;;;;;;;;;4993010;28;20026;-66
2022/03/14 02:22:51;;;;;;;1.98;1.50;;;11.10;99.90;;;;;;4992498;28;20033;-67
2022/03/14 02:25:16;;;;;;;2.15;1.75;;;11.50;97.70;;;;;;4992619;28;20443;-66
2022/03/14 02:27:42;;;;;;;2.22;1.85;;;11.20;99.90;;;;;;4992641;28;20026;-66
2022/03/14 02:30:08;;;;;;;2.38;1.80;;;;;;;;;;4992338;28;20042;-66
2022/03/14 02:32:38;;;;;;;2.80;2.15;;;11.40;99.90;;;;;;4991338;28;20026;-66
2022/03/14 02:35:05;;;;;;;3.03;2.00;;;11.20;99.90;;;;;;4992433;28;20041;-66
2022/03/14 02:37:31;;;;;;;2.72;1.92;;;;;;;;;;4992693;28;20032;-66
2022/03/14 02:39:56;;;;;;;3.10;2.30;;;11.20;99.90;;;;;;4991970;28;20042;-66
2022/03/14 02:42:22;;;;;;;2.55;1.77;;;;;;;;;;4992351;28;20483;-66
2022/03/14 02:44:48;;;;;;;3.80;1.98;;;;;;;;;;4992169;28;20088;-66
2022/03/14 02:47:14;;;;;;;2.30;1.83;;;;;;;;;;4991941;28;20420;-66
2022/03/14 02:49:40;;;;;;;2.83;2.22;;;11.00;99.90;;;;;;4992234;28;20068;-66
2022/03/14 02:52:06;;;;;;;2.90;2.33;;;11.00;93.60;;;;;;4991799;28;20030;-66
2022/03/14 02:54:31;;;;;;;2.63;1.98;;;11.20;99.90;;;;;;4992033;28;20073;-65
2022/03/14 02:56:57;;;;;;;2.45;2.00;;;;;;;;;;4991207;28;20450;-66
2022/03/14 02:59:23;;;;;;;3.25;2.40;;;11.10;98.90;;;;;;4991363;28;20095;-66
2022/03/14 03:01:49;;;;;;;3.45;2.15;;;;;;;;;;4990717;28;20042;-66
2022/03/14 03:04:15;;;;;;;4.93;2.28;;;;;;;;;;4992179;28;20034;-66
2022/03/14 03:06:42;;;;;;;3.08;2.55;;;;;;;;;;4992033;28;20395;-66
2022/03/14 03:09:08;;;;;;;3.17;2.42;;;10.80;99.90;;;;;;4991678;28;20045;-66
2022/03/14 03:11:34;;;;;;;3.08;2.53;;;10.80;99.90;;;;;;4991932;28;20022;-66
2022/03/14 03:14:01;;;;;;;4.63;2.47;;;10.70;99.90;;;;;;4991248;28;20048;-66
2022/03/14 03:16:26;;;;;;;2.95;2.60;;;10.40;99.90;;;;;;4991228;28;20026;-66
2022/03/14 03:18:53;;;;;;;3.90;2.72;;;10.60;98.30;;;;;;4991089;28;20559;-66
2022/03/14 03:21:18;;;;;;;4.22;2.50;;;10.70;99.90;;;;;;4991994;28;20026;-66
2022/03/14 03:23:44;;;;;;;2.70;2.50;;;10.80;99.90;;;;;;4991466;28;20093;-66
2022/03/14 03:26:10;;;;;;;3.50;2.80;;;10.70;99.90;;;;;;4991403;28;20034;-66
2022/03/14 03:28:36;;;;;;;3.13;2.55;;;10.50;96.70;;;;;;4991497;28;20034;-66
2022/03/14 03:31:21;;;;;;;3.30;2.47;;;11.00;99.90;;;;;;4990578;28;20038;-66
2022/03/14 03:33:50;;;;;;;3.03;2.22;;;10.70;99.90;;;;;;4991420;28;20432;-66
2022/03/14 03:36:15;;;;;;;5.20;2.70;;;10.60;99.90;;;;;;4991636;28;20495;-66
2022/03/14 03:38:41;;;;;;;3.10;2.80;;;10.60;99.90;;;;;;4991425;28;20030;-68
2022/03/14 03:41:06;;;;;;;2.85;2.50;;;10.70;99.90;;;;;;4991230;28;20037;-66
2022/03/14 03:43:32;;;;;;;3.13;2.83;;;10.80;99.90;;;;;;4991111;28;20030;-66
2022/03/14 03:45:58;;;;;;;3.40;3.10;;;11.10;99.90;;;;;;4989082;28;20027;-66
2022/03/14 03:48:24;;;;;;;3.05;2.35;;;;;;;;;;4991316;28;20034;-66
2022/03/14 03:50:49;;;;;;;3.58;2.92;;;10.80;99.90;;;;;;4990826;28;20084;-66
2022/03/14 03:53:15;;;;;;;4.75;2.65;;;;;;;;;;4990890;28;20059;-66
2022/03/14 03:55:41;;;;;;;3.50;2.47;;;10.20;99.90;;;;;;4991164;28;20472;-66
2022/03/14 03:58:07;;;;;;;3.58;2.63;;;;;;;;;;4990867;28;20062;-66
2022/03/14 04:00:33;;;;;;;3.90;2.45;;;10.70;99.90;;;;;;4990779;28;20475;-66
2022/03/14 04:02:59;;;;;;;4.70;3.03;;;;;;;;;;4990817;28;20065;-66
2022/03/14 04:05:27;;;;;;;3.30;3.00;;;10.60;96.90;;;;;;4991186;28;20030;-66
2022/03/14 04:07:57;;;;;;;2.93;2.40;;;10.60;99.90;;;;;;4990589;28;20027;-66
2022/03/14 04:10:24;;;;;;;5.67;2.70;;;10.70;99.90;;;;;;4990943;28;20042;-66
2022/03/14 04:12:52;;;;;;;4.53;3.58;;;10.90;99.90;;;;;;4990603;28;20328;-66
2022/03/14 04:15:18;;;;;;;3.28;2.97;;;10.60;99.90;;;;;;4990368;28;20056;-66
2022/03/14 04:17:44;;;;;;;5.15;2.88;;;10.60;99.90;;;;;;4990554;28;20031;-66
2022/03/14 04:20:13;;;;;;;3.37;2.57;;;11.00;99.90;;;;;;4990664;28;20026;-66
2022/03/14 04:22:39;;;;;;;4.22;3.13;;;10.60;99.90;;;;;;4990804;28;20026;-66
2022/03/14 04:25:06;;;;;;;4.40;2.87;;;10.50;99.90;;;;;;4990484;28;20034;-66
2022/03/14 04:27:32;;;;;;;4.18;3.42;;;10.60;99.90;;;;;;4990864;28;20185;-66
2022/03/14 04:29:58;;;;;;;5.75;3.40;;;10.60;99.90;;;;;;4990058;28;20042;-66
2022/03/14 04:32:23;;;;;;;3.70;2.88;;;10.50;99.90;;;;;;4990671;28;20026;-66
2022/03/14 04:34:50;;;;;;;4.53;3.25;;;10.40;99.90;;;;;;4990313;28;20041;-66
2022/03/14 04:37:15;;;;;;;3.85;3.55;;;10.50;99.90;;;;;;4990655;28;20535;-67
2022/03/14 04:39:41;;;;;;;3.38;2.55;;;10.50;99.90;;;;;;4990547;28;20038;-66
2022/03/14 04:42:08;;;;;;;3.30;2.90;;;10.60;99.90;;;;;;4990440;28;20041;-66
2022/03/14 04:44:34;;;;;;;3.90;2.93;;;10.60;99.90;;;;;;4990321;28;20034;-66
2022/03/14 04:47:00;;;;;;;4.60;2.70;;;;;;;;;;4990157;28;20475;-66
2022/03/14 04:49:27;;;;;;;4.07;3.50;;;10.50;99.90;;;;;;4990732;28;20475;-66
2022/03/14 04:51:54;;;;;;;3.58;3.22;;;10.60;99.90;;;;;;4990140;28;20082;-66
2022/03/14 04:54:19;;;;;;;3.38;3.05;;;10.70;99.70;;;;;;4990454;28;20150;-66
2022/03/14 04:56:45;;;;;;;4.07;3.65;;;10.50;99.90;;;;;;4993355;28;20038;-66
2022/03/14 04:59:11;;;;;;;4.80;4.18;;;;;;;;;;4993731;28;20034;-66
2022/03/14 05:01:39;;;;;;;5.60;4.82;;;10.50;99.90;;;;;;4994070;28;20446;-66
2022/03/14 05:04:05;;;;;;;6.03;5.35;;;10.70;99.90;;;;;;4994028;28;20022;-66
2022/03/14 05:06:32;;;;;;;5.28;4.78;;;;;;;;;;4994251;28;20154;-66
2022/03/14 05:08:58;;;;;;;5.93;5.17;;;10.00;99.90;;;;;;4993823;28;20042;-67
2022/03/14 05:11:24;;;;;;;6.78;5.55;;;;;;;;;;4994364;28;20023;-66
2022/03/14 05:13:50;;;;;;;6.18;5.55;;;9.90;99.90;;;;;;4993166;28;20037;-67
2022/03/14 05:16:16;;;;;;;6.05;5.20;;;;;;;;;;4994297;28;20022;-66
2022/03/14 05:18:41;;;;;;;6.73;6.00;;;9.70;99.90;;;;;;4993774;28;20073;-66
2022/03/14 05:21:07;;;;;;;6.67;5.97;;;9.60;99.90;;;;;;4993675;28;20046;-66
2022/03/14 05:23:32;;;;;;;7.13;6.43;;;9.60;99.90;;;;;;4993864;28;20361;-66
2022/03/14 05:25:59;;;;;;;8.47;7.57;;;;;;;;;;4993818;28;20046;-66
2022/03/14 05:28:25;;;;;;;6.77;6.17;;;;;;;;;;5007972;28;20395;-66
2022/03/14 05:30:50;;;;;;;8.50;7.60;;;9.60;99.90;;;;;;4992458;28;20038;-66
2022/03/14 05:33:16;;;;;;;9.30;8.40;;;;;;;;;;4993751;28;20449;-66
2022/03/14 05:35:42;;;;;;;9.20;8.27;;;;;;;;;;4993200;28;20028;-66
2022/03/14 05:38:08;;;;;;;10.90;9.80;;;;;;;;;;4993127;28;20038;-66
2022/03/14 05:40:34;;;;;;;9.80;8.90;;;9.70;99.90;;;;;;4993606;28;20037;-66
2022/03/14 05:43:06;;;;;;;10.90;8.87;;;9.60;99.90;;;;;;4992930;28;20026;-66
2022/03/14 05:45:31;;;;;;;9.53;8.53;;;9.70;99.90;;;;;;4993483;28;20026;-67
2022/03/14 05:47:57;;;;;;;14.17;10.67;;;9.60;99.90;;;;;;4993104;28;20026;-67
2022/03/14 05:50:24;;;;;;;11.37;10.17;;;;;;;;;;4993205;28;20045;-68
2022/03/14 05:52:50;;;;;;;11.50;10.03;;;;;;;;;;4992795;28;20049;-68
2022/03/14 05:55:15;;;;;;;13.13;10.27;;;9.80;99.90;;;;;;4993160;28;20439;-69
2022/03/14 05:57:41;;;;;;;10.73;9.37;;;9.70;99.90;;;;;;4992872;28;20034;-68
2022/03/14 06:00:08;;;;;;;11.53;10.33;;;9.70;99.90;;;;;;4992683;28;20034;-68
2022/03/14 06:02:38;;;;;;;11.63;9.93;;;9.70;99.90;;;;;;4992912;28;20032;-67
2022/03/14 06:05:04;;;;;;;11.23;10.13;;;9.60;99.90;;;;;;4992792;28;20087;-67
2022/03/14 06:07:29;;;;;;;15.17;11.37;;;9.70;99.90;;;;;;4992029;28;20547;-68
2022/03/14 06:09:56;;;;;;;15.80;10.17;;;;;;;;;;4991971;28;20109;-67
2022/03/14 06:12:30;;;;;;;11.03;9.13;;;9.90;99.90;;;;;;4992588;28;20053;-67
2022/03/14 06:14:58;;;;;;;13.43;9.27;;;9.60;99.90;;;;;;4992197;28;20019;-67
2022/03/14 06:17:24;;;;;;;12.43;10.03;;;9.60;99.90;;;;;;4991717;28;20050;-67
2022/03/14 06:19:50;;;;;;;11.63;10.13;;;9.70;99.90;;;;;;4992165;28;20030;-67
2022/03/14 06:22:20;;;;;;;13.43;10.20;;;9.60;99.90;;;;;;4992914;28;20100;-67
2022/03/14 06:24:47;;;;;;;14.00;10.70;;;9.50;99.90;;;;;;4992135;28;20025;-67
2022/03/14 06:27:17;;;;;;;10.43;9.37;;;9.50;99.90;;;;;;4984288;28;20383;-67
2022/03/14 06:29:44;;;;;;;10.30;9.27;;;9.60;99.90;;;;;;4985627;28;20053;-67
2022/03/14 06:32:11;;;;;;;11.43;9.20;;;9.70;99.90;;;;;;4991230;28;20487;-68
2022/03/14 06:34:40;;;;;;;10.83;9.73;;;9.40;99.90;;;;;;4992056;28;20026;-67
2022/03/14 06:37:09;;;;;;;11.63;10.43;;;;;;;;;;4991663;28;20019;-67
2022/03/14 06:39:36;;;;;;;13.70;10.70;;;9.30;99.90;;;;;;4991245;28;20487;-67
2022/03/14 06:42:10;;;;;;;14.17;11.80;;;9.80;99.90;;;;;;4988352;28;20789;-67
2022/03/14 06:44:42;;;;;;;13.35;10.60;;;9.70;99.90;;;;;;4986482;28;20019;-67
2022/03/14 06:47:09;;;;;;;11.57;10.20;;;9.60;99.90;;;;;;4989515;28;20038;-67
2022/03/14 06:49:36;;;;;;;13.60;11.47;;;;;;;;;;4990124;28;20039;-67
2022/03/14 06:52:02;;;;;;;12.57;10.57;;;;;;;;;;4991504;28;20121;-66
2022/03/14 06:54:27;;;;;;;13.77;11.07;;;10.10;99.90;;;;;;4991522;28;20034;-67
2022/03/14 06:56:53;;;;;;;14.70;12.13;;;9.80;99.90;;;;;;4991319;28;20439;-67
2022/03/14 06:59:19;;;;;;;17.27;12.13;;;9.80;99.90;;;;;;4991844;28;20049;-67
2022/03/14 07:01:44;;;;;;;12.30;11.10;;;9.80;99.90;;;;;;4991966;28;20109;-67
2022/03/14 07:04:10;;;;;;;15.13;12.23;;;9.90;99.90;;;;;;4991712;28;20487;-66
2022/03/14 07:06:35;;;;;;;12.93;11.13;;;9.70;99.90;;;;;;4991174;28;20109;-68
2022/03/14 07:09:02;;;;;;;13.47;10.70;;;9.90;99.90;;;;;;4990930;28;20503;-67
2022/03/14 07:11:27;;;;;;;13.63;11.43;;;9.90;99.90;;;;;;4992085;28;20064;-67
2022/03/14 07:13:53;;;;;;;13.65;11.70;;;;;;;;;;4991323;28;20124;-67
2022/03/14 07:16:20;;;;;;;13.13;11.73;;;9.90;99.90;;;;;;4991815;28;20030;-67
2022/03/14 07:18:46;;;;;;;13.07;11.70;;;10.00;99.90;;;;;;4991396;28;20042;-68
2022/03/14 07:21:12;;;;;;;13.70;11.98;;;9.90;99.90;;;;;;4990414;28;20491;-69
2022/03/14 07:23:37;;;;;;;13.43;12.03;;;9.90;99.90;;;;;;4990875;28;20044;-68
2022/03/14 07:26:03;;;;;;;16.13;12.03;;;10.00;99.90;;;;;;4991176;28;20537;-68
2022/03/14 07:28:29;;;;;;;15.23;12.00;;;;;;;;;;4991313;28;20084;-68
2022/03/14 07:30:54;;;;;;;15.57;13.97;;;9.80;99.90;;;;;;4991146;28;20030;-68
2022/03/14 07:33:20;;;;;;;16.67;12.60;;;10.10;99.90;;;;;;4991603;28;20053;-68
2022/03/14 07:35:46;;;;;;;15.07;12.97;;;10.00;99.90;;;;;;4991398;28;20455;-69
2022/03/14 07:38:12;;;;;;;16.60;14.27;;;9.90;99.90;;;;;;4990380;28;20057;-69
2022/03/14 07:40:37;;;;;;;17.57;14.00;;;10.20;99.90;;;;;;4990984;28;20537;-69
2022/03/14 07:43:04;;;;;;;18.70;14.48;;;10.00;99.90;;;;;;4990344;28;20503;-69
2022/03/14 07:45:29;;;;;;;16.27;12.40;;;10.00;99.90;;;;;;4991610;28;20395;-70
2022/03/14 07:47:57;;;;;;;19.33;13.07;;;10.10;99.90;;;;;;4990572;28;20175;-69
2022/03/14 07:50:24;;;;;;;18.53;15.30;;;9.90;99.90;;;;;;4991030;28;20056;-69
2022/03/14 07:52:50;;;;;;;17.57;14.37;;;10.00;99.90;;;;;;4989014;28;20400;-70
2022/03/14 07:55:16;;;;;;;18.03;14.93;;;10.10;99.90;;;;;;4990802;28;20027;-69
2022/03/14 07:57:43;;;;;;;18.57;15.20;;;10.20;99.90;;;;;;4990741;28;20027;-68
2022/03/14 08:00:18;;;;;;;19.00;14.93;;;10.20;99.90;;;;;;4988822;28;20072;-69
2022/03/14 08:02:44;;;;;;;20.42;15.88;;;10.30;99.90;;;;;;4986502;28;20025;-70
2022/03/14 08:05:16;;;;;;;21.55;16.60;;;10.10;99.90;;;;;;4989895;28;20550;-68
2022/03/14 08:07:45;;;;;;;20.83;17.07;;;10.60;99.90;;;;;;4988607;28;20113;-68
2022/03/14 08:10:12;;;;;;;23.30;16.43;;;10.20;99.90;;;;;;4990126;28;20046;-68
2022/03/14 08:12:43;;;;;;;23.70;18.90;;;10.40;99.90;;;;;;4990446;28;20034;-68
2022/03/14 08:15:09;;;;;;;22.33;16.93;;;;;;;;;;4989424;28;20065;-68
2022/03/14 08:17:35;;;;;;;24.87;19.17;;;10.40;99.90;;;;;;4990558;28;20038;-67
2022/03/14 08:20:01;;;;;;;24.63;19.20;;;;;;;;;;4989940;28;20018;-67
2022/03/14 08:22:27;;;;;;;22.83;19.63;;;;;;;;;;4990306;28;20130;-68
2022/03/14 08:24:53;;;;;;;26.77;19.77;;;10.20;99.90;;;;;;4990168;28;20101;-68
2022/03/14 08:27:18;;;;;;;25.07;19.50;;;10.60;99.90;;;;;;4990732;28;20125;-67
2022/03/14 08:29:44;;;;;;;24.73;19.77;;;10.90;99.90;;;;;;4990252;28;20042;-69
2022/03/14 08:32:12;;;;;;;25.80;20.67;;;;;;;;;;4993822;28;20162;-69
2022/03/14 08:34:38;;;;;;;27.03;21.27;;;10.70;99.90;;;;;;4994946;28;20104;-68
2022/03/14 08:37:04;;;;;;;34.50;22.87;;;;;;;;;;4993034;28;20121;-69
2022/03/14 08:39:31;;;;;;;27.23;20.17;;;10.90;99.90;;;;;;4994425;28;20034;-69
2022/03/14 08:41:57;;;;;;;25.13;21.00;;;10.90;99.90;;;;;;4993604;28;20034;-69
2022/03/14 08:44:24;;;;;;;28.58;21.80;;;;;;;;;;4985511;28;20053;-67
2022/03/14 08:46:49;;;;;;;26.60;21.57;;;10.70;99.90;;;;;;4991538;28;20129;-67
2022/03/14 08:49:15;;;;;;;25.60;20.97;;;10.70;99.90;;;;;;4994373;28;20121;-67
2022/03/14 08:51:41;;;;;;;23.93;20.00;;;10.70;99.90;;;;;;4993707;28;20385;-68
2022/03/14 08:54:07;;;;;;;22.27;19.53;;;10.70;99.90;;;;;;4992536;28;20058;-68
2022/03/14 08:56:33;;;;;;;23.75;20.08;;;10.70;99.90;;;;;;4993739;28;20030;-67
2022/03/14 08:58:59;;;;;;;24.63;20.80;;;11.10;99.90;;;;;;4993935;28;20022;-69
2022/03/14 09:01:25;;;;;;;25.43;20.27;;;10.70;99.90;;;;;;4987522;28;20053;-69
2022/03/14 09:03:50;;;;;;;23.37;19.37;;;10.70;99.90;;;;;;4993704;28;20022;-68
2022/03/14 09:06:17;;;;;;;23.00;19.92;;;10.80;99.90;;;;;;4993697;28;20048;-68
2022/03/14 09:08:43;;;;;;;22.33;20.00;;;11.00;99.90;;;;;;4994057;28;20030;-68
2022/03/14 09:11:09;;;;;;;24.13;20.87;;;;;;;;;;4992259;28;20037;-68
2022/03/14 09:13:35;;;;;;;24.90;20.30;;;10.80;99.90;;;;;;4993338;28;20027;-67
2022/03/14 09:16:01;;;;;;;23.53;19.77;;;;;;;;;;4993442;28;20049;-67
2022/03/14 09:18:30;;;;;;;27.52;21.55;;;10.70;99.90;;;;;;4993393;28;20491;-67
2022/03/14 09:20:56;;;;;;;25.15;20.95;;;10.80;99.90;;;;;;4988305;28;20112;-67
2022/03/14 09:23:21;;;;;;;26.50;21.20;;;11.00;99.90;;;;;;4993732;28;20109;-67
2022/03/14 09:25:48;;;;;;;25.20;21.03;;;11.00;99.90;;;;;;4993762;28;20030;-68
2022/03/14 09:28:14;;;;;;;30.10;23.03;;;11.20;99.90;;;;;;4993622;28;20030;-67
2022/03/14 09:30:40;;;;;;;29.60;22.70;;;11.10;99.90;;;;;;4993592;28;20387;-66
2022/03/14 09:33:06;;;;;;;26.23;21.53;;;11.30;99.90;;;;;;4992759;28;20025;-67
2022/03/14 09:35:33;;;;;;;30.63;23.98;;;11.20;99.90;;;;;;4993590;28;20057;-67
2022/03/14 09:37:59;;;;;;;27.63;22.52;;;11.00;99.90;;;;;;4990238;28;20058;-67
2022/03/14 09:40:24;;;;;;;28.25;23.48;;;11.10;99.90;;;;;;4993232;28;20062;-67
2022/03/14 09:42:53;;;;;;;31.75;23.80;;;11.10;99.90;;;;;;4992207;28;20113;-67
2022/03/14 09:45:20;;;;;;;29.05;24.65;;;11.10;99.90;;;;;;4993562;28;20059;-68
2022/03/14 09:47:51;;;;;;;30.73;24.30;;;11.10;99.90;;;;;;4992615;28;20027;-68
2022/03/14 09:50:34;;;;;;;28.00;22.92;;;11.10;99.90;;;;;;4987694;28;20041;-68
2022/03/14 09:53:04;;;;;;;32.92;24.33;;;10.70;99.90;;;;;;4973234;28;20511;-67
2022/03/14 09:55:30;;;;;;;28.75;24.00;;;11.20;99.90;;;;;;4990027;28;20356;-67
2022/03/14 09:57:56;;;;;;;27.83;23.30;;;11.40;99.90;;;;;;4992752;28;20022;-68
2022/03/14 10:00:22;;;;;;;31.42;23.33;;;11.30;99.90;;;;;;4993110;28;20038;-68
2022/03/14 10:02:48;;;;;;;27.92;23.17;;;;;;;;;;4992538;28;20065;-67
2022/03/14 10:05:16;;;;;;;30.27;23.35;;;11.50;99.90;;;;;;4992823;28;20072;-67
2022/03/14 10:07:43;;;;;;;33.42;25.42;;;11.40;99.90;;;;;;4992951;28;20026;-68
2022/03/14 10:10:09;;;;;;;27.23;23.42;;;11.40;99.90;;;;;;4992517;28;20129;-68
2022/03/14 10:12:35;;;;;;;28.98;23.50;;;11.40;99.90;;;;;;4992854;28;20105;-68
2022/03/14 10:15:05;;;;;;;28.83;24.42;;;11.40;99.90;;;;;;4992522;28;20114;-67
2022/03/14 10:17:32;;;;;;;29.58;24.95;;;11.50;99.90;;;;;;4992349;28;20027;-67
2022/03/14 10:20:00;;;;;;;30.98;23.65;;;11.30;99.90;;;;;;4990291;28;20034;-69
2022/03/14 10:22:39;;;;;;;28.67;24.02;;;11.70;99.90;;;;;;4981657;28;20053;-67
2022/03/14 10:25:20;;;;;;;30.67;24.33;;;11.30;99.90;;;;;;4992529;28;20114;-67
2022/03/14 10:27:49;;;;;;;24.02;21.30;;;11.50;99.90;;;;;;4992573;28;20394;-66
2022/03/14 10:30:31;;;;;;;28.47;22.83;;;11.40;99.90;;;;;;4992525;28;20444;-68
2022/03/14 10:33:08;;;;;;;24.83;21.33;;;11.80;99.90;;;;;;4991846;28;20483;-67
2022/03/14 10:35:38;;;;;;;27.98;23.75;;;11.90;99.90;;;;;;4992404;28;20403;-67
2022/03/14 10:38:08;;;;;;;30.70;23.30;;;11.80;99.90;;;;;;4981904;28;20050;-67
2022/03/14 10:40:42;;;;;;;25.95;22.10;;;11.90;99.90;;;;;;4981171;28;20084;-68
2022/03/14 10:43:28;;;;;;;23.77;20.80;;;11.70;99.90;;;;;;4992147;28;20058;-67
2022/03/14 10:45:55;;;;;;;23.52;20.92;;;12.10;99.90;;;;;;4991150;28;20053;-68
2022/03/14 10:48:35;;;;;;;26.63;21.92;;;12.10;99.90;;;;;;4992060;28;20420;-68
2022/03/14 10:51:08;;;;;;;30.77;24.30;;;12.00;98.80;;;;;;4985351;28;20387;-67
2022/03/14 10:53:48;;;;;;;27.90;23.33;;;12.10;99.60;;;;;;4990711;28;20046;-68
2022/03/14 10:56:17;;;;;;;27.65;24.33;;;12.10;99.90;;;;;;4990601;28;20036;-67
2022/03/14 10:58:43;;;;;;;31.33;23.95;;;;;;;;;;4991843;28;20022;-67
2022/03/14 11:01:12;;;;;;;27.05;23.92;;;12.10;99.20;;;;;;4991536;28;20267;-68
2022/03/14 11:03:42;;;;;;;24.55;21.95;;;12.20;99.90;;;;;;4989082;28;20030;-67
2022/03/14 11:06:13;;;;;;;27.70;24.35;;;12.30;98.20;;;;;;4991294;28;20026;-67
2022/03/14 11:08:40;;;;;;;29.65;23.38;;;12.50;99.90;;;;;;4983232;28;20077;-68
2022/03/14 11:11:11;;;;;;;28.55;23.08;;;12.50;99.90;;;;;;4990959;28;20357;-68
2022/03/14 11:13:57;;;;;;;23.77;21.25;;;12.80;99.90;;;;;;4991851;28;20050;-68
2022/03/14 11:16:26;;;;;;;23.90;19.85;;;12.60;98.30;;;;;;4991016;28;20066;-68
2022/03/14 11:18:52;;;;;;;27.35;18.77;;;12.40;99.90;;;;;;4991482;28;20050;-68
2022/03/14 11:21:20;;;;;;;20.92;18.75;;;12.40;99.90;;;;;;4975411;28;20123;-67
2022/03/14 11:23:47;;;;;;;19.73;17.25;;;12.40;99.90;;;;;;4979881;28;20031;-68
2022/03/14 11:26:16;;;;;;;25.38;18.23;;;12.50;99.90;;;;;;5010977;28;20057;-67
2022/03/14 11:28:44;;;;;;;18.65;16.65;;;12.70;97.70;;;;;;5009777;28;20022;-68
2022/03/14 11:31:10;;;;;;;22.27;17.70;;;;;;;;;;4990097;28;20030;-68
2022/03/14 11:33:36;;;;;;;24.33;17.23;;;12.90;99.90;;;;;;5005785;28;20391;-68
2022/03/14 11:36:04;;;;;;;22.55;17.27;;;13.10;99.90;;;;;;4991331;28;20026;-67
2022/03/14 11:38:30;;;;;;;22.10;16.92;;;12.80;98.20;;;;;;4984885;28;20051;-68
2022/03/14 11:40:57;;;;;;;20.17;15.65;;;12.90;99.90;;;;;;4971755;28;20031;-68
2022/03/14 11:43:23;;;;;;;24.23;17.55;;;12.90;99.90;;;;;;4971739;28;20106;-68
2022/03/14 11:45:50;;;;;;;20.08;17.48;;;;;;;;;;4971216;28;20540;-68
2022/03/14 11:48:17;;;;;;;21.67;17.38;;;12.80;99.90;;;;;;4975908;28;20053;-67
2022/03/14 11:51:03;;;;;;;20.77;16.42;;;12.80;99.90;;;;;;4991153;28;20070;-68
2022/03/14 11:53:32;;;;;;;18.73;16.55;;;13.00;96.70;;;;;;4991108;28;20085;-68
2022/03/14 11:56:06;;;;;;;18.52;16.23;;;13.20;99.90;;;;;;4990958;28;20042;-68
2022/03/14 11:58:40;;;;;;;18.55;15.93;;;12.70;99.90;;;;;;4988267;28;20026;-68
2022/03/14 12:01:12;;;;;;;;;;;12.90;96.40;;;;;;4991008;28;20019;-68
2022/03/14 12:03:42;;;;;;;19.77;15.52;;;12.60;99.90;;;;;;4987921;28;19922;-68
2022/03/14 12:06:08;;;;;;;20.58;16.05;;;12.40;99.90;;;;;;4971225;28;20356;-68
2022/03/14 12:08:36;;;;;;;18.50;16.45;;;12.30;99.90;;;;;;4971315;28;20122;-68
2022/03/14 12:11:27;;;;;;;20.92;15.55;;;12.30;99.90;;;;;;4972587;28;20067;-67
2022/03/14 12:13:52;;;;;;;21.00;15.38;;;12.40;99.90;;;;;;5002383;28;20022;-68
2022/03/14 12:16:44;;;;;;;17.73;14.95;;;12.70;99.90;;;;;;5009453;28;20382;-68
2022/03/14 12:19:37;;;;;;;17.58;13.40;;;12.80;99.90;;;;;;4971216;28;20027;-69
2022/03/14 12:22:04;;;;;;;15.40;11.57;;;12.20;99.90;;;;;;4971272;28;20093;-68
2022/03/14 12:24:36;;;;;;;15.85;12.32;;;12.60;99.90;;;;;;4971434;28;20480;-68
2022/03/14 12:27:22;;;;;;;19.35;13.57;;;12.80;97.40;;;;;;4970542;28;20037;-68
2022/03/14 12:29:52;;;;;;;21.02;13.20;;;12.40;96.30;;;;;;4972966;28;20053;-67
2022/03/14 12:32:23;;;;;;;15.55;13.43;;;12.50;96.40;;;;;;4989434;28;20041;-68
2022/03/14 12:35:15;;;;;;;20.88;14.50;;;12.60;96.50;;;;;;4987564;28;20085;-67
2022/03/14 12:37:52;;;;;;;17.70;13.13;;;12.80;99.90;;;;;;4972846;28;20112;-68
2022/03/14 12:40:21;;;;;;;15.82;12.65;;;13.20;96.40;;;;;;4989265;28;20076;-68
2022/03/14 12:42:47;;;;;;;15.45;11.77;;;12.60;99.90;;;;;;4988751;28;20109;-68
2022/03/14 12:45:24;;;;;;;22.20;13.43;;;13.10;95.40;;;;;;4989947;28;20536;-68
2022/03/14 12:48:05;;;;;;;18.92;12.00;;;12.90;99.90;;;;;;4990030;28;20057;-68
2022/03/14 12:50:43;;;;;;;15.73;10.65;;;12.60;95.10;;;;;;4990449;28;20134;-67
2022/03/14 12:53:09;;;;;;;12.45;9.48;;;12.80;97.80;;;;;;4987570;28;20058;-68
2022/03/14 12:55:42;;;;;;;14.18;9.82;;;13.10;99.90;;;;;;4974289;28;20491;-68